createdAt,value
2023-03-24T00:01:24.049Z,72.60
2023-03-24T00:03:53.283Z,72.70
2023-03-24T00:06:23.600Z,72.80
2023-03-24T00:08:53.262Z,73.00
2023-03-24T00:11:22.194Z,72.90
2023-03-24T00:13:50.925Z,73.10
2023-03-24T00:16:22.046Z,73.20
2023-03-24T00:18:53.483Z,73.30
2023-03-24T00:21:25.684Z,73.40
2023-03-24T00:23:55.805Z,73.60
2023-03-24T00:26:25.451Z,73.60
2023-03-24T00:28:54.592Z,73.70
2023-03-24T00:31:24.584Z,73.80
2023-03-24T00:33:53.852Z,73.80
2023-03-24T00:36:26.003Z,73.80
2023-03-24T00:38:54.444Z,74.10
2023-03-24T00:41:24.912Z,73.70
2023-03-24T00:43:56.271Z,73.90
2023-03-24T00:46:31.046Z,74.30
2023-03-24T00:49:03.568Z,74.30
2023-03-24T00:51:36.867Z,74.50
2023-03-24T00:54:05.395Z,74.80
2023-03-24T00:56:36.127Z,74.70
2023-03-24T00:59:04.514Z,74.90
2023-03-24T01:01:35.370Z,74.90
2023-03-24T01:04:06.135Z,75.10
2023-03-24T01:06:37.645Z,75.00
2023-03-24T01:09:07.048Z,75.80
2023-03-24T01:11:39.805Z,75.10
2023-03-24T01:14:08.746Z,75.30
2023-03-24T01:16:37.106Z,75.20
2023-03-24T01:19:06.765Z,75.20
2023-03-24T01:21:37.113Z,75.30
2023-03-24T01:24:06.362Z,75.40
2023-03-24T01:26:34.764Z,75.40
2023-03-24T01:29:03.004Z,75.40
2023-03-24T01:31:31.599Z,75.40
2023-03-24T01:34:00.038Z,75.40
2023-03-24T01:36:28.518Z,75.40
2023-03-24T01:38:58.595Z,75.40
2023-03-24T01:41:29.188Z,75.50
2023-03-24T01:43:57.382Z,75.40
2023-03-24T01:46:26.637Z,75.40
2023-03-24T01:48:56.829Z,75.50
2023-03-24T01:51:30.468Z,75.40
2023-03-24T01:54:03.555Z,75.50
2023-03-24T01:56:36.417Z,75.40
2023-03-24T01:59:09.817Z,75.40
2023-03-24T02:01:38.381Z,75.40
2023-03-24T02:04:08.437Z,75.30
2023-03-24T02:06:41.347Z,75.40
2023-03-24T02:09:12.605Z,75.60
2023-03-24T02:11:42.091Z,75.60
2023-03-24T02:14:11.904Z,75.60
2023-03-24T02:16:53.876Z,75.50
2023-03-24T02:19:49.699Z,75.70
2023-03-24T02:22:56.533Z,75.80
2023-03-24T02:26:18.664Z,75.70
2023-03-24T02:28:55.696Z,75.70
2023-03-24T02:31:43.479Z,75.40
2023-03-24T02:34:43.709Z,75.60
2023-03-24T02:37:32.851Z,75.70
2023-03-24T02:40:34.747Z,75.60
2023-03-24T02:43:20.761Z,75.70
2023-03-24T02:45:58.941Z,75.50
2023-03-24T02:48:36.180Z,75.60
2023-03-24T02:51:13.088Z,75.60
2023-03-24T02:53:52.264Z,75.60
2023-03-24T02:56:27.410Z,75.50
2023-03-24T02:59:01.047Z,75.60
2023-03-24T03:01:35.815Z,75.40
2023-03-24T03:04:09.331Z,75.60
2023-03-24T03:06:40.715Z,75.60
2023-03-24T03:09:13.699Z,75.60
2023-03-24T03:11:45.961Z,75.50
2023-03-24T03:14:19.121Z,75.60
2023-03-24T03:16:53.648Z,75.60
2023-03-24T03:19:24.233Z,75.60
2023-03-24T03:21:53.956Z,75.60
2023-03-24T03:24:27.256Z,75.40
2023-03-24T03:27:02.471Z,75.50
2023-03-24T03:29:35.468Z,75.50
2023-03-24T03:32:07.942Z,75.30
2023-03-24T03:34:42.267Z,75.40
2023-03-24T03:37:17.367Z,75.50
2023-03-24T03:39:50.547Z,75.60
2023-03-24T03:42:20.719Z,75.60
2023-03-24T03:44:49.117Z,75.50
2023-03-24T03:47:19.050Z,75.50
2023-03-24T03:49:47.586Z,75.50
2023-03-24T03:52:16.398Z,75.50
2023-03-24T03:54:45.498Z,75.40
2023-03-24T03:57:15.916Z,75.40
2023-03-24T03:59:45.754Z,75.50
2023-03-24T04:02:31.063Z,75.40
2023-03-24T04:05:29.291Z,75.60
2023-03-24T04:08:22.061Z,75.60
2023-03-24T04:11:15.372Z,75.50
2023-03-24T04:13:56.025Z,75.40
2023-03-24T04:16:39.497Z,75.30
2023-03-24T04:19:19.170Z,75.20
2023-03-24T04:22:03.080Z,75.30
2023-03-24T04:24:41.524Z,75.30
2023-03-24T04:27:17.267Z,75.20
2023-03-24T04:29:55.421Z,75.20
2023-03-24T04:32:32.484Z,75.30
2023-03-24T04:35:07.050Z,75.30
2023-03-24T04:37:38.753Z,75.30
2023-03-24T04:40:10.801Z,75.40
2023-03-24T04:42:42.666Z,75.50
2023-03-24T04:45:11.025Z,75.30
2023-03-24T04:47:44.149Z,75.10
2023-03-24T04:50:14.439Z,75.10
2023-03-24T04:52:43.743Z,75.20
2023-03-24T04:55:33.989Z,75.30
2023-03-24T04:58:02.217Z,75.50
2023-03-24T05:00:31.269Z,75.30
2023-03-24T05:03:00.837Z,75.30
2023-03-24T05:05:28.986Z,75.30
2023-03-24T05:07:57.209Z,75.30
2023-03-24T05:10:25.681Z,75.30
2023-03-24T05:12:53.826Z,75.40
2023-03-24T05:15:22.059Z,75.30
2023-03-24T05:17:51.741Z,75.40
2023-03-24T05:20:21.737Z,75.50
2023-03-24T05:22:50.316Z,75.50
2023-03-24T05:25:19.457Z,75.40
2023-03-24T05:27:48.300Z,75.40
2023-03-24T05:30:17.523Z,75.50
2023-03-24T05:32:47.218Z,75.60
2023-03-24T05:35:16.200Z,75.60
2023-03-24T05:37:45.958Z,75.60
2023-03-24T05:40:15.770Z,75.70
2023-03-24T05:42:44.225Z,75.60
2023-03-24T05:45:13.777Z,75.60
2023-03-24T05:47:42.145Z,75.60
2023-03-24T05:50:11.034Z,75.70
2023-03-24T05:52:39.257Z,75.90
2023-03-24T05:55:09.691Z,75.80
2023-03-24T05:57:38.464Z,75.90
2023-03-24T06:00:10.703Z,75.80
2023-03-24T06:02:39.913Z,75.80
2023-03-24T06:05:09.818Z,75.70
2023-03-24T06:07:38.342Z,75.70
2023-03-24T06:10:11.388Z,75.70
2023-03-24T06:12:40.233Z,75.70
2023-03-24T06:15:10.054Z,75.70
2023-03-24T06:17:38.615Z,75.80
2023-03-24T06:20:14.994Z,75.70
2023-03-24T06:22:45.328Z,75.80
2023-03-24T06:25:16.864Z,75.80
2023-03-24T06:27:47.185Z,75.80
2023-03-24T06:30:16.946Z,75.80
2023-03-24T06:32:47.038Z,75.70
2023-03-24T06:35:15.998Z,75.70
2023-03-24T06:37:44.824Z,75.70
2023-03-24T06:40:17.624Z,75.70
2023-03-24T06:42:46.326Z,75.60
2023-03-24T06:45:14.665Z,75.50
2023-03-24T06:47:42.866Z,75.60
2023-03-24T06:50:11.952Z,75.60
2023-03-24T06:52:41.278Z,75.60
2023-03-24T06:55:10.219Z,75.60
2023-03-24T06:57:39.803Z,75.50
2023-03-24T07:00:10.376Z,75.50
2023-03-24T07:02:38.805Z,75.40
2023-03-24T07:05:09.190Z,75.50
2023-03-24T07:08:16.809Z,75.40
2023-03-24T07:10:26.354Z,75.40
2023-03-24T07:12:55.910Z,75.50
2023-03-24T07:15:24.142Z,75.60
2023-03-24T07:17:52.305Z,75.50
2023-03-24T07:20:21.498Z,75.50
2023-03-24T07:22:49.749Z,75.60
2023-03-24T07:25:19.982Z,75.60
2023-03-24T07:27:48.550Z,75.50
2023-03-24T07:30:24.240Z,75.50
2023-03-24T07:32:57.758Z,75.60
2023-03-24T07:35:25.964Z,75.60
2023-03-24T07:37:54.132Z,75.50
2023-03-24T07:40:22.310Z,75.30
2023-03-24T07:42:50.475Z,75.30
2023-03-24T07:45:20.757Z,75.30
2023-03-24T07:47:49.029Z,75.30
2023-03-24T07:50:17.506Z,75.10
2023-03-24T07:52:49.831Z,75.10
2023-03-24T07:55:18.277Z,75.10
2023-03-24T07:57:48.800Z,75.00
2023-03-24T08:00:21.615Z,74.90
2023-03-24T08:02:52.669Z,74.80
2023-03-24T08:05:21.954Z,74.80
2023-03-24T08:07:53.552Z,74.90
2023-03-24T08:10:24.138Z,74.80
2023-03-24T08:12:52.862Z,74.60
2023-03-24T08:15:22.676Z,74.50
2023-03-24T08:17:51.922Z,74.60
2023-03-24T08:20:21.520Z,74.40
2023-03-24T08:22:50.742Z,74.20
2023-03-24T08:25:20.815Z,74.30
2023-03-24T08:27:49.064Z,74.10
2023-03-24T08:30:20.345Z,74.00
2023-03-24T08:32:51.891Z,73.60
2023-03-24T08:35:22.483Z,69.80
2023-03-24T08:37:50.754Z,67.60
2023-03-24T08:40:23.369Z,67.10
2023-03-24T08:42:53.247Z,66.10
2023-03-24T08:45:23.917Z,65.80
2023-03-24T08:47:54.587Z,65.60
2023-03-24T08:50:25.857Z,65.40
2023-03-24T08:52:55.685Z,65.20
2023-03-24T08:55:25.599Z,65.70
2023-03-24T08:57:53.869Z,66.00
2023-03-24T09:00:22.972Z,66.10
2023-03-24T09:02:54.111Z,65.70
2023-03-24T09:05:33.318Z,65.90
2023-03-24T09:08:10.635Z,66.50
2023-03-24T09:10:39.790Z,66.80
2023-03-24T09:13:07.967Z,67.20
2023-03-24T09:15:36.725Z,67.70
2023-03-24T09:18:06.752Z,68.80
2023-03-24T09:20:35.997Z,68.30
2023-03-24T09:23:04.198Z,68.60
2023-03-24T09:25:32.486Z,68.70
2023-03-24T09:28:02.474Z,68.90
2023-03-24T09:30:32.175Z,68.90
2023-03-24T09:33:01.775Z,69.00
2023-03-24T09:35:31.984Z,69.40
2023-03-24T09:38:00.477Z,69.90
2023-03-24T09:40:31.249Z,70.40
2023-03-24T09:43:04.529Z,70.70
2023-03-24T09:45:38.086Z,71.10
2023-03-24T09:48:11.943Z,71.80
2023-03-24T09:50:47.549Z,71.50
2023-03-24T09:53:28.317Z,71.30
2023-03-24T09:55:56.926Z,71.30
2023-03-24T09:58:28.624Z,71.50
2023-03-24T10:00:57.667Z,71.50
2023-03-24T10:03:26.202Z,71.40
2023-03-24T10:06:00.211Z,71.10
2023-03-24T10:08:33.223Z,71.30
2023-03-24T10:11:05.829Z,71.20
2023-03-24T10:13:45.150Z,71.30
2023-03-24T10:16:21.684Z,71.50
2023-03-24T10:18:56.691Z,71.60
2023-03-24T10:21:28.184Z,71.80
2023-03-24T10:24:03.696Z,71.70
2023-03-24T10:26:41.126Z,71.70
2023-03-24T10:29:22.230Z,71.50
2023-03-24T10:31:55.472Z,71.30
2023-03-24T10:34:29.621Z,71.20
2023-03-24T10:37:03.091Z,71.00
2023-03-24T10:42:06.993Z,70.80
2023-03-24T10:44:37.378Z,70.60
2023-03-24T10:47:09.224Z,70.50
2023-03-24T10:49:38.034Z,70.70
2023-03-24T10:52:11.321Z,70.80
2023-03-24T10:54:54.203Z,70.50
2023-03-24T10:57:24.749Z,70.70
2023-03-24T10:59:56.078Z,71.00
2023-03-24T11:02:26.795Z,71.20
2023-03-24T11:04:58.754Z,72.20
2023-03-24T11:07:33.448Z,71.80
2023-03-24T11:10:06.281Z,71.80
2023-03-24T11:12:36.725Z,70.20
2023-03-24T11:15:21.165Z,69.20
2023-03-24T11:17:55.284Z,68.00
2023-03-24T11:20:29.207Z,67.00
2023-03-24T11:23:02.821Z,66.90
2023-03-24T11:25:34.344Z,66.50
2023-03-24T11:28:05.208Z,66.40
2023-03-24T11:30:37.271Z,66.00
2023-03-24T11:33:07.334Z,66.10
2023-03-24T11:35:41.769Z,66.20
2023-03-24T11:38:18.256Z,65.80
2023-03-24T11:40:58.232Z,65.60
2023-03-24T11:43:28.114Z,66.20
2023-03-24T11:46:01.891Z,66.30
2023-03-24T11:48:39.938Z,66.50
2023-03-24T11:51:12.950Z,66.20
2023-03-24T11:53:48.436Z,66.60
2023-03-24T11:56:26.713Z,66.90
2023-03-24T11:59:03.002Z,67.10
2023-03-24T12:01:36.883Z,67.50
2023-03-24T12:04:38.699Z,68.00
2023-03-24T12:07:31.121Z,68.70
2023-03-24T12:10:07.524Z,68.80
2023-03-24T12:12:42.492Z,68.70
2023-03-24T12:15:28.535Z,68.70
2023-03-24T12:18:10.180Z,69.00
2023-03-24T12:20:44.711Z,69.50
2023-03-24T12:23:19.209Z,68.60
2023-03-24T12:26:05.192Z,68.10
2023-03-24T12:28:45.145Z,67.40
2023-03-24T12:31:44.378Z,68.00
2023-03-24T12:34:33.791Z,67.50
2023-03-24T12:37:08.997Z,65.50
2023-03-24T12:39:44.729Z,65.40
2023-03-24T12:42:15.385Z,64.50
2023-03-24T12:45:15.168Z,64.00
2023-03-24T12:48:04.997Z,62.80
2023-03-24T12:50:44.718Z,62.70
2023-03-24T12:53:27.372Z,62.70
2023-03-24T12:55:59.848Z,62.70
2023-03-24T12:58:39.218Z,62.80
2023-03-24T13:01:13.201Z,62.10
2023-03-24T13:03:45.476Z,62.20
2023-03-24T13:06:20.476Z,61.70
2023-03-24T13:08:58.019Z,61.10
2023-03-24T13:11:37.381Z,60.30
2023-03-24T13:14:12.535Z,60.50
2023-03-24T13:16:41.624Z,60.80
2023-03-24T13:19:19.142Z,60.70
2023-03-24T13:21:49.097Z,60.40
2023-03-24T13:24:21.926Z,60.40
2023-03-24T13:26:59.447Z,60.70
2023-03-24T13:29:48.972Z,59.50
2023-03-24T13:32:32.045Z,59.30
2023-03-24T13:35:02.859Z,59.70
2023-03-24T13:37:37.342Z,61.00
2023-03-24T13:40:11.141Z,59.60
2023-03-24T13:42:44.896Z,59.50
2023-03-24T13:45:28.252Z,59.30
2023-03-24T13:48:08.003Z,58.80
2023-03-24T13:50:39.820Z,58.50
2023-03-24T13:53:14.065Z,58.30
2023-03-24T13:55:49.964Z,58.10
2023-03-24T13:58:22.075Z,57.90
2023-03-24T14:01:20.804Z,57.90
2023-03-24T14:04:27.133Z,57.90
2023-03-24T14:06:57.044Z,58.30
2023-03-24T14:09:26.544Z,58.20
2023-03-24T14:12:22.764Z,58.00
2023-03-24T14:15:29.600Z,57.20
2023-03-24T14:18:16.424Z,57.70
2023-03-24T14:21:00.780Z,58.10
2023-03-24T14:23:37.480Z,58.20
2023-03-24T14:26:07.214Z,57.80
2023-03-24T14:28:40.135Z,57.30
2023-03-24T14:31:24.506Z,56.50
2023-03-24T14:34:14.632Z,56.20
2023-03-24T14:36:45.030Z,56.60
2023-03-24T14:39:31.311Z,56.60
2023-03-24T14:42:00.164Z,55.70
2023-03-24T14:44:53.785Z,56.40
2023-03-24T14:47:23.154Z,56.20
2023-03-24T14:49:54.862Z,56.30
2023-03-24T14:52:26.855Z,56.00
2023-03-24T14:54:58.542Z,55.90
2023-03-24T14:57:29.463Z,55.50
2023-03-24T15:00:07.023Z,55.30
2023-03-24T15:02:38.728Z,55.00
2023-03-24T15:05:31.500Z,55.30
2023-03-24T15:08:08.482Z,54.90
2023-03-24T15:10:41.374Z,55.40
2023-03-24T15:13:30.267Z,54.90
2023-03-24T15:15:59.012Z,53.50
2023-03-24T15:18:27.281Z,54.00
2023-03-24T15:20:57.600Z,53.30
2023-03-24T15:23:28.185Z,53.10
2023-03-24T15:25:57.009Z,52.70
2023-03-24T15:28:28.123Z,52.60
2023-03-24T15:30:59.262Z,52.10
2023-03-24T15:33:31.409Z,52.20
2023-03-24T15:36:02.317Z,52.30
2023-03-24T15:38:32.266Z,52.00
2023-03-24T15:41:03.418Z,51.80
2023-03-24T15:43:31.750Z,52.30
2023-03-24T15:46:12.358Z,51.80
2023-03-24T15:48:41.178Z,51.50
2023-03-24T15:51:12.845Z,51.10
2023-03-24T15:53:44.197Z,51.80
2023-03-24T15:56:20.634Z,51.30
2023-03-24T15:58:54.109Z,51.00
2023-03-24T16:01:31.437Z,50.80
2023-03-24T16:04:03.019Z,50.70
2023-03-24T16:06:35.683Z,50.40
2023-03-24T16:09:08.714Z,50.10
2023-03-24T16:11:36.951Z,49.90
2023-03-24T16:14:21.597Z,50.20
2023-03-24T16:16:50.024Z,50.10
2023-03-24T16:19:18.504Z,50.70
2023-03-24T16:21:48.052Z,50.60
2023-03-24T16:24:16.253Z,50.40
2023-03-24T16:26:44.782Z,50.60
2023-03-24T16:29:17.327Z,50.10
2023-03-24T16:31:49.116Z,50.00
2023-03-24T16:34:18.684Z,50.30
2023-03-24T16:36:48.378Z,51.60
2023-03-24T16:39:18.258Z,50.50
2023-03-24T16:41:47.108Z,50.40
2023-03-24T16:44:17.193Z,50.40
2023-03-24T16:46:47.053Z,50.10
2023-03-24T16:49:16.684Z,49.80
2023-03-24T16:51:45.775Z,49.90
2023-03-24T16:54:15.572Z,49.80
2023-03-24T16:56:43.839Z,49.80
2023-03-24T16:59:12.679Z,50.10
2023-03-24T17:01:42.078Z,49.80
2023-03-24T17:04:14.560Z,50.00
2023-03-24T17:06:45.483Z,49.80
2023-03-24T17:09:15.213Z,50.10
2023-03-24T17:11:45.607Z,50.20
2023-03-24T17:14:13.816Z,50.40
2023-03-24T17:16:44.449Z,50.40
2023-03-24T17:19:13.767Z,50.50
2023-03-24T17:21:46.039Z,50.80
2023-03-24T17:24:15.967Z,51.10
2023-03-24T17:26:44.427Z,51.10
2023-03-24T17:29:14.145Z,51.20
2023-03-24T17:31:43.159Z,51.30
2023-03-24T17:34:21.741Z,51.40
2023-03-24T17:36:51.422Z,51.50
2023-03-24T17:39:22.347Z,51.50
2023-03-24T17:41:50.570Z,51.30
2023-03-24T17:44:19.033Z,51.50
2023-03-24T17:46:47.255Z,51.60
2023-03-24T17:49:15.519Z,51.70
2023-03-24T17:51:44.285Z,51.70
2023-03-24T17:54:13.358Z,51.40
2023-03-24T17:56:43.000Z,51.60
2023-03-24T17:59:11.210Z,51.50
2023-03-24T18:01:40.498Z,51.50
2023-03-24T18:04:09.198Z,51.60
2023-03-24T18:06:38.601Z,51.50
2023-03-24T18:09:07.455Z,51.50
2023-03-24T18:11:35.989Z,51.50
2023-03-24T18:14:05.760Z,51.50
2023-03-24T18:16:35.597Z,51.40
2023-03-24T18:19:04.112Z,51.50
2023-03-24T18:21:32.706Z,51.50
2023-03-24T18:24:00.986Z,51.50
2023-03-24T18:26:29.740Z,51.50
2023-03-24T18:28:57.919Z,51.50
2023-03-24T18:31:28.199Z,51.50
2023-03-24T18:33:56.607Z,51.60
2023-03-24T18:36:27.274Z,51.80
2023-03-24T18:39:00.066Z,52.00
2023-03-24T18:41:30.021Z,51.60
2023-03-24T18:44:00.080Z,51.70
2023-03-24T18:46:29.824Z,52.00
2023-03-24T18:48:58.739Z,51.90
2023-03-24T18:51:28.192Z,52.10
2023-03-24T18:53:56.830Z,52.20
2023-03-24T18:56:25.497Z,52.20
2023-03-24T18:58:53.734Z,52.20
2023-03-24T19:01:23.626Z,52.40
2023-03-24T19:03:54.404Z,52.40
2023-03-24T19:06:26.202Z,52.60
2023-03-24T19:08:54.489Z,52.70
2023-03-24T19:11:22.733Z,53.10
2023-03-24T19:13:52.075Z,53.10
2023-03-24T19:16:21.465Z,53.30
2023-03-24T19:18:50.634Z,53.20
2023-03-24T19:21:23.029Z,53.10
2023-03-24T19:23:53.038Z,53.30
2023-03-24T19:26:21.613Z,53.70
2023-03-24T19:28:51.062Z,54.20
2023-03-24T19:31:21.172Z,54.70
2023-03-24T19:33:51.617Z,55.60
2023-03-24T19:36:21.435Z,56.30
2023-03-24T19:38:49.719Z,56.80
2023-03-24T19:41:17.958Z,57.20
2023-03-24T19:43:46.539Z,57.70
2023-03-24T19:46:16.567Z,58.30
2023-03-24T19:48:44.833Z,58.70
2023-03-24T19:51:13.150Z,58.90
2023-03-24T19:53:42.892Z,59.40
2023-03-24T19:56:11.141Z,59.90
2023-03-24T19:58:39.379Z,60.20
2023-03-24T20:01:07.605Z,60.70
2023-03-24T20:03:36.750Z,60.80
2023-03-24T20:06:08.064Z,61.10
2023-03-24T20:08:36.754Z,61.30
2023-03-24T20:11:10.465Z,61.40
2023-03-24T20:13:38.746Z,61.90
2023-03-24T20:16:07.592Z,61.70
2023-03-24T20:18:36.447Z,61.90
2023-03-24T20:21:06.409Z,62.20
2023-03-24T20:23:34.676Z,62.20
2023-03-24T20:26:03.019Z,62.40
2023-03-24T20:28:32.924Z,62.70
2023-03-24T20:31:01.650Z,62.80
2023-03-24T20:33:29.907Z,63.00
2023-03-24T20:35:58.431Z,63.30
2023-03-24T20:38:26.833Z,63.50
2023-03-24T20:41:02.294Z,63.60
2023-03-24T20:43:35.643Z,64.00
2023-03-24T20:46:03.995Z,63.70
2023-03-24T20:48:32.654Z,63.80
2023-03-24T20:51:02.016Z,63.80
2023-03-24T20:53:32.775Z,64.00
2023-03-24T20:56:02.239Z,64.20
2023-03-24T20:58:30.891Z,64.30
2023-03-24T21:01:00.644Z,64.40
2023-03-24T21:03:28.918Z,64.70
2023-03-24T21:05:57.277Z,64.80
2023-03-24T21:08:25.485Z,64.80
2023-03-24T21:10:56.893Z,64.90
2023-03-24T21:13:34.806Z,65.00
2023-03-24T21:16:08.535Z,65.00
2023-03-24T21:18:37.247Z,65.10
2023-03-24T21:21:12.615Z,65.20
2023-03-24T21:23:42.082Z,65.30
2023-03-24T21:26:12.763Z,65.50
2023-03-24T21:28:41.316Z,65.10
2023-03-24T21:31:12.748Z,65.00
2023-03-24T21:33:43.394Z,65.10
2023-03-24T21:36:12.241Z,64.90
2023-03-24T21:38:40.682Z,64.80
2023-03-24T21:41:09.393Z,64.90
2023-03-24T21:43:38.304Z,65.10
2023-03-24T21:46:06.777Z,65.30
2023-03-24T21:48:40.136Z,65.60
2023-03-24T21:51:08.425Z,65.70
2023-03-24T21:53:36.669Z,65.80
2023-03-24T21:56:05.534Z,66.00
2023-03-24T21:58:34.840Z,66.00
2023-03-24T22:01:03.135Z,66.10
2023-03-24T22:03:34.520Z,66.10
2023-03-24T22:06:04.589Z,66.00
2023-03-24T22:08:32.913Z,66.20
2023-03-24T22:11:04.218Z,66.20
2023-03-24T22:13:34.725Z,66.40
2023-03-24T22:16:04.954Z,66.50
2023-03-24T22:18:34.988Z,66.70
2023-03-24T22:21:06.955Z,66.80
2023-03-24T22:23:39.518Z,66.80
2023-03-24T22:26:10.377Z,66.80
2023-03-24T22:28:39.427Z,66.80
2023-03-24T22:31:09.370Z,66.80
2023-03-24T22:33:38.365Z,66.70
2023-03-24T22:36:09.629Z,66.50
2023-03-24T22:38:38.487Z,66.70
2023-03-24T22:41:09.432Z,66.60
2023-03-24T22:43:39.457Z,66.50
2023-03-24T22:46:08.246Z,66.50
2023-03-24T22:48:36.541Z,66.40
2023-03-24T22:51:05.203Z,66.40
2023-03-24T22:53:34.966Z,66.30
2023-03-24T22:56:03.633Z,66.20
2023-03-24T22:58:31.795Z,66.10
2023-03-24T23:00:59.974Z,65.90
2023-03-24T23:03:28.148Z,65.80
2023-03-24T23:05:56.901Z,65.70
2023-03-24T23:08:29.622Z,65.60
2023-03-24T23:11:00.435Z,65.60
2023-03-24T23:13:30.716Z,65.60
2023-03-24T23:15:58.942Z,65.60
2023-03-24T23:18:27.201Z,65.60
2023-03-24T23:21:03.411Z,65.60
2023-03-24T23:23:31.653Z,65.90
2023-03-24T23:26:01.605Z,65.90
2023-03-24T23:28:29.770Z,66.10
2023-03-24T23:30:58.084Z,66.00
2023-03-24T23:33:27.502Z,66.10
2023-03-24T23:35:58.985Z,66.20
2023-03-24T23:38:27.607Z,66.20
2023-03-24T23:40:55.866Z,66.10
2023-03-24T23:43:25.695Z,66.00
2023-03-24T23:45:56.233Z,66.00
2023-03-24T23:48:24.710Z,65.90
2023-03-24T23:50:57.098Z,65.90
2023-03-24T23:53:25.983Z,65.90
2023-03-24T23:55:57.069Z,66.70
2023-03-24T23:58:29.148Z,66.00
